This is the latest recevied weather packets stored in our database for station/object F4ACR-10. If no packets are shown the sender has not sent any weather packets the latest 10 day(s).
| Time | Temp. | Humidity | Pressure | Rain* | Wind** | Luminosity | Snow |
|---|---|---|---|---|---|---|---|
| 1787615652 | 18.89° C | 85% | 1011.3 hPa | - | - | - | - |
| 1787615052 | 19.44° C | 85% | 1011.4 hPa | - | - | - | - |
| 1787614451 | 18.89° C | 87% | 1011.2 hPa | - | - | - | - |
| 1787613851 | 19.44° C | 87% | 1011.2 hPa | - | - | - | - |
| 1787613251 | 19.44° C | 86% | 1011.1 hPa | - | - | - | - |
| 1787612651 | 19.44° C | 87% | 1011.1 hPa | - | - | - | - |
| 1787612051 | 19.44° C | 86% | 1011.1 hPa | - | - | - | - |
| 1787611450 | 19.44° C | 88% | 1011 hPa | - | - | - | - |
| 1787610850 | 19.44° C | 89% | 1010.9 hPa | - | - | - | - |
| 1787610250 | 18.33° C | 95% | 1010.8 hPa | - | - | - | - |
| 1787609649 | 18.33° C | 96% | 1010.8 hPa | - | - | - | - |
| 1787609049 | 18.89° C | 94% | 1011 hPa | - | - | - | - |
| 1787608481 | 18.89° C | 93% | 1011 hPa | - | - | - | - |
| 1787607881 | 19.44° C | 90% | 1011 hPa | - | - | - | - |
| 1787607280 | 19.44° C | 90% | 1011 hPa | - | - | - | - |
| 1787606680 | 19.44° C | 88% | 1011 hPa | - | - | - | - |
| 1787606080 | 19.44° C | 87% | 1011.2 hPa | - | - | - | - |
| 1787605479 | 19.44° C | 86% | 1011.1 hPa | - | - | - | - |
| 1787604879 | 20° C | 85% | 1011.3 hPa | - | - | - | - |
| 1787604279 | 20° C | 84% | 1011.4 hPa | - | - | - | - |
| 1787603679 | 20° C | 83% | 1011.4 hPa | - | - | - | - |
| 1787603078 | 20° C | 83% | 1011.6 hPa | - | - | - | - |
| 1787602478 | 20° C | 84% | 1011.6 hPa | - | - | - | - |
| 1787601878 | 20.56° C | 80% | 1011.3 hPa | - | - | - | - |
| 1787601278 | 20.56° C | 80% | 1011.1 hPa | - | - | - | - |
* Rain since midnight (hover to see other rain measurements)
** Current wind speed in m/s (hover to see current wind gust speed)